sensor_id;sensor_type;location;lat;lon;timestamp;temperature;humidity
13713;DHT22;6928;50.546;7.120;2022-10-16T00:01:08;13.73;89.68
13713;DHT22;6928;50.546;7.120;2022-10-16T00:03:37;13.66;89.75
13713;DHT22;6928;50.546;7.120;2022-10-16T00:06:05;13.62;90.18
13713;DHT22;6928;50.546;7.120;2022-10-16T00:08:34;13.49;90.47
13713;DHT22;6928;50.546;7.120;2022-10-16T00:11:03;13.73;89.86
13713;DHT22;6928;50.546;7.120;2022-10-16T00:13:33;13.83;89.57
13713;DHT22;6928;50.546;7.120;2022-10-16T00:16:01;13.78;89.53
13713;DHT22;6928;50.546;7.120;2022-10-16T00:18:28;13.79;89.54
13713;DHT22;6928;50.546;7.120;2022-10-16T00:21:00;13.69;89.68
13713;DHT22;6928;50.546;7.120;2022-10-16T00:23:27;13.38;91.19
13713;DHT22;6928;50.546;7.120;2022-10-16T00:25:57;13.30;91.41
13713;DHT22;6928;50.546;7.120;2022-10-16T00:28:25;13.45;91.54
13713;DHT22;6928;50.546;7.120;2022-10-16T00:30:52;13.65;90.45
13713;DHT22;6928;50.546;7.120;2022-10-16T00:33:19;13.62;90.04
13713;DHT22;6928;50.546;7.120;2022-10-16T00:35:46;13.71;89.72
13713;DHT22;6928;50.546;7.120;2022-10-16T00:38:13;13.63;89.89
13713;DHT22;6928;50.546;7.120;2022-10-16T00:40:40;13.71;89.21
13713;DHT22;6928;50.546;7.120;2022-10-16T00:43:13;13.63;89.24
13713;DHT22;6928;50.546;7.120;2022-10-16T00:45:41;13.54;89.55
13713;DHT22;6928;50.546;7.120;2022-10-16T00:48:12;13.65;89.21
13713;DHT22;6928;50.546;7.120;2022-10-16T00:50:39;13.58;89.52
13713;DHT22;6928;50.546;7.120;2022-10-16T00:53:08;13.55;89.33
13713;DHT22;6928;50.546;7.120;2022-10-16T00:55:36;13.17;91.05
13713;DHT22;6928;50.546;7.120;2022-10-16T00:58:03;13.49;89.92
13713;DHT22;6928;50.546;7.120;2022-10-16T01:00:31;13.48;89.77
13713;DHT22;6928;50.546;7.120;2022-10-16T01:03:00;13.49;89.71
13713;DHT22;6928;50.546;7.120;2022-10-16T01:05:33;13.39;89.97
13713;DHT22;6928;50.546;7.120;2022-10-16T01:08:10;13.61;89.48
13713;DHT22;6928;50.546;7.120;2022-10-16T01:10:43;13.39;89.77
13713;DHT22;6928;50.546;7.120;2022-10-16T01:13:17;13.45;89.98
13713;DHT22;6928;50.546;7.120;2022-10-16T01:15:48;13.45;89.87
13713;DHT22;6928;50.546;7.120;2022-10-16T01:18:24;13.42;89.89
13713;DHT22;6928;50.546;7.120;2022-10-16T01:21:02;13.49;89.80
13713;DHT22;6928;50.546;7.120;2022-10-16T01:23:41;13.41;90.06
13713;DHT22;6928;50.546;7.120;2022-10-16T01:26:20;13.24;90.56
13713;DHT22;6928;50.546;7.120;2022-10-16T01:28:56;13.34;90.26
13713;DHT22;6928;50.546;7.120;2022-10-16T01:31:28;13.31;90.45
13713;DHT22;6928;50.546;7.120;2022-10-16T01:34:00;13.31;90.24
13713;DHT22;6928;50.546;7.120;2022-10-16T01:36:34;13.11;90.91
13713;DHT22;6928;50.546;7.120;2022-10-16T01:39:02;13.27;90.95
13713;DHT22;6928;50.546;7.120;2022-10-16T01:41:33;13.44;90.17
13713;DHT22;6928;50.546;7.120;2022-10-16T01:44:05;13.41;89.81
13713;DHT22;6928;50.546;7.120;2022-10-16T01:46:36;13.23;90.58
13713;DHT22;6928;50.546;7.120;2022-10-16T01:49:05;13.30;90.03
13713;DHT22;6928;50.546;7.120;2022-10-16T01:51:33;13.24;90.18
13713;DHT22;6928;50.546;7.120;2022-10-16T01:54:02;13.17;90.57
13713;DHT22;6928;50.546;7.120;2022-10-16T01:56:31;13.21;90.42
13713;DHT22;6928;50.546;7.120;2022-10-16T01:59:04;13.24;90.25
13713;DHT22;6928;50.546;7.120;2022-10-16T02:01:34;13.11;90.74
13713;DHT22;6928;50.546;7.120;2022-10-16T02:04:10;13.27;90.66
13713;DHT22;6928;50.546;7.120;2022-10-16T02:06:39;13.04;91.03
13713;DHT22;6928;50.546;7.120;2022-10-16T02:09:05;13.17;90.97
13713;DHT22;6928;50.546;7.120;2022-10-16T02:11:32;13.25;90.68
13713;DHT22;6928;50.546;7.120;2022-10-16T02:14:05;13.24;90.22
13713;DHT22;6928;50.546;7.120;2022-10-16T02:16:37;13.35;90.07
13713;DHT22;6928;50.546;7.120;2022-10-16T02:19:05;13.20;90.20
13713;DHT22;6928;50.546;7.120;2022-10-16T02:21:39;13.24;90.03
13713;DHT22;6928;50.546;7.120;2022-10-16T02:24:13;12.81;91.67
13713;DHT22;6928;50.546;7.120;2022-10-16T02:26:51;12.87;91.79
13713;DHT22;6928;50.546;7.120;2022-10-16T02:29:24;13.08;91.25
13713;DHT22;6928;50.546;7.120;2022-10-16T02:31:57;13.27;90.47
13713;DHT22;6928;50.546;7.120;2022-10-16T02:34:26;13.23;90.48
13713;DHT22;6928;50.546;7.120;2022-10-16T02:36:56;13.27;90.37
13713;DHT22;6928;50.546;7.120;2022-10-16T02:39:25;13.30;90.25
13713;DHT22;6928;50.546;7.120;2022-10-16T02:41:52;13.31;90.22
13713;DHT22;6928;50.546;7.120;2022-10-16T02:44:23;13.13;90.94
13713;DHT22;6928;50.546;7.120;2022-10-16T02:46:50;12.94;91.66
13713;DHT22;6928;50.546;7.120;2022-10-16T02:49:17;13.02;91.74
13713;DHT22;6928;50.546;7.120;2022-10-16T02:51:44;13.18;91.29
13713;DHT22;6928;50.546;7.120;2022-10-16T02:54:10;13.24;91.12
13713;DHT22;6928;50.546;7.120;2022-10-16T02:56:38;13.23;91.06
13713;DHT22;6928;50.546;7.120;2022-10-16T02:59:05;13.27;91.00
13713;DHT22;6928;50.546;7.120;2022-10-16T03:01:33;13.10;91.67
13713;DHT22;6928;50.546;7.120;2022-10-16T03:04:00;13.04;92.74
13713;DHT22;6928;50.546;7.120;2022-10-16T03:06:26;13.00;92.56
13713;DHT22;6928;50.546;7.120;2022-10-16T03:08:53;13.24;91.92
13713;DHT22;6928;50.546;7.120;2022-10-16T03:11:20;13.20;91.98
13713;DHT22;6928;50.546;7.120;2022-10-16T03:13:46;13.24;92.07
13713;DHT22;6928;50.546;7.120;2022-10-16T03:16:13;13.21;92.00
13713;DHT22;6928;50.546;7.120;2022-10-16T03:18:41;13.15;92.15
13713;DHT22;6928;50.546;7.120;2022-10-16T03:21:08;13.35;91.66
13713;DHT22;6928;50.546;7.120;2022-10-16T03:23:34;13.34;91.51
13713;DHT22;6928;50.546;7.120;2022-10-16T03:26:01;13.32;91.63
13713;DHT22;6928;50.546;7.120;2022-10-16T03:28:28;13.34;91.44
13713;DHT22;6928;50.546;7.120;2022-10-16T03:30:55;13.31;91.84
13713;DHT22;6928;50.546;7.120;2022-10-16T03:33:21;13.28;91.82
13713;DHT22;6928;50.546;7.120;2022-10-16T03:35:53;13.31;92.10
13713;DHT22;6928;50.546;7.120;2022-10-16T03:38:21;13.38;91.74
13713;DHT22;6928;50.546;7.120;2022-10-16T03:40:48;13.23;91.84
13713;DHT22;6928;50.546;7.120;2022-10-16T03:43:15;13.24;92.31
13713;DHT22;6928;50.546;7.120;2022-10-16T03:45:42;13.36;91.86
13713;DHT22;6928;50.546;7.120;2022-10-16T03:48:09;13.32;91.73
13713;DHT22;6928;50.546;7.120;2022-10-16T03:50:35;13.25;92.30
13713;DHT22;6928;50.546;7.120;2022-10-16T03:53:04;13.06;93.11
13713;DHT22;6928;50.546;7.120;2022-10-16T03:55:30;13.25;92.73
13713;DHT22;6928;50.546;7.120;2022-10-16T03:57:57;13.35;92.38
13713;DHT22;6928;50.546;7.120;2022-10-16T04:00:24;13.36;92.02
13713;DHT22;6928;50.546;7.120;2022-10-16T04:02:50;13.27;92.24
13713;DHT22;6928;50.546;7.120;2022-10-16T04:05:17;13.25;92.23
13713;DHT22;6928;50.546;7.120;2022-10-16T04:07:44;13.17;92.42
13713;DHT22;6928;50.546;7.120;2022-10-16T04:10:12;13.21;92.44
13713;DHT22;6928;50.546;7.120;2022-10-16T04:12:39;13.24;92.38
13713;DHT22;6928;50.546;7.120;2022-10-16T04:15:07;13.36;92.09
13713;DHT22;6928;50.546;7.120;2022-10-16T04:17:33;13.48;91.67
13713;DHT22;6928;50.546;7.120;2022-10-16T04:20:00;13.36;91.97
13713;DHT22;6928;50.546;7.120;2022-10-16T04:22:27;13.46;91.64
13713;DHT22;6928;50.546;7.120;2022-10-16T04:24:54;13.39;91.75
13713;DHT22;6928;50.546;7.120;2022-10-16T04:27:22;13.39;91.90
13713;DHT22;6928;50.546;7.120;2022-10-16T04:29:48;13.42;91.73
13713;DHT22;6928;50.546;7.120;2022-10-16T04:32:15;13.36;91.98
13713;DHT22;6928;50.546;7.120;2022-10-16T04:34:42;13.31;92.24
13713;DHT22;6928;50.546;7.120;2022-10-16T04:37:09;13.23;92.51
13713;DHT22;6928;50.546;7.120;2022-10-16T04:39:35;13.30;92.60
13713;DHT22;6928;50.546;7.120;2022-10-16T04:42:02;13.34;92.29
13713;DHT22;6928;50.546;7.120;2022-10-16T04:44:30;13.45;91.99
13713;DHT22;6928;50.546;7.120;2022-10-16T04:46:57;13.35;91.96
13713;DHT22;6928;50.546;7.120;2022-10-16T04:49:24;13.35;91.96
13713;DHT22;6928;50.546;7.120;2022-10-16T04:51:51;13.11;92.78
13713;DHT22;6928;50.546;7.120;2022-10-16T04:54:17;13.20;92.74
13713;DHT22;6928;50.546;7.120;2022-10-16T04:56:44;13.28;92.47
13713;DHT22;6928;50.546;7.120;2022-10-16T04:59:13;13.35;92.12
13713;DHT22;6928;50.546;7.120;2022-10-16T05:01:41;13.36;91.85
13713;DHT22;6928;50.546;7.120;2022-10-16T05:04:09;13.36;92.05
13713;DHT22;6928;50.546;7.120;2022-10-16T05:06:37;13.34;91.86
13713;DHT22;6928;50.546;7.120;2022-10-16T05:09:04;13.32;91.90
13713;DHT22;6928;50.546;7.120;2022-10-16T05:11:31;13.31;91.86
13713;DHT22;6928;50.546;7.120;2022-10-16T05:13:58;13.32;92.24
13713;DHT22;6928;50.546;7.120;2022-10-16T05:16:25;13.31;92.26
13713;DHT22;6928;50.546;7.120;2022-10-16T05:18:53;13.21;92.42
13713;DHT22;6928;50.546;7.120;2022-10-16T05:21:20;13.24;92.27
13713;DHT22;6928;50.546;7.120;2022-10-16T05:23:47;13.23;92.55
13713;DHT22;6928;50.546;7.120;2022-10-16T05:26:14;13.07;92.99
13713;DHT22;6928;50.546;7.120;2022-10-16T05:28:40;13.23;92.47
13713;DHT22;6928;50.546;7.120;2022-10-16T05:31:09;13.23;92.57
13713;DHT22;6928;50.546;7.120;2022-10-16T05:33:36;13.25;92.41
13713;DHT22;6928;50.546;7.120;2022-10-16T05:36:07;13.18;92.67
13713;DHT22;6928;50.546;7.120;2022-10-16T05:38:34;13.38;92.04
13713;DHT22;6928;50.546;7.120;2022-10-16T05:41:01;13.38;92.13
13713;DHT22;6928;50.546;7.120;2022-10-16T05:43:29;13.23;92.43
13713;DHT22;6928;50.546;7.120;2022-10-16T05:45:56;13.34;92.16
13713;DHT22;6928;50.546;7.120;2022-10-16T05:48:23;13.23;92.54
13713;DHT22;6928;50.546;7.120;2022-10-16T05:50:57;13.23;92.84
13713;DHT22;6928;50.546;7.120;2022-10-16T05:53:27;13.11;93.03
13713;DHT22;6928;50.546;7.120;2022-10-16T05:55:55;13.30;92.79
13713;DHT22;6928;50.546;7.120;2022-10-16T05:58:22;13.28;92.34
13713;DHT22;6928;50.546;7.120;2022-10-16T06:00:54;13.38;92.35
13713;DHT22;6928;50.546;7.120;2022-10-16T06:03:21;13.28;92.51
13713;DHT22;6928;50.546;7.120;2022-10-16T06:05:48;13.35;92.25
13713;DHT22;6928;50.546;7.120;2022-10-16T06:08:15;13.30;92.60
13713;DHT22;6928;50.546;7.120;2022-10-16T06:10:44;13.25;92.64
13713;DHT22;6928;50.546;7.120;2022-10-16T06:13:11;13.39;92.40
13713;DHT22;6928;50.546;7.120;2022-10-16T06:15:38;13.20;93.05
13713;DHT22;6928;50.546;7.120;2022-10-16T06:18:07;13.24;92.83
13713;DHT22;6928;50.546;7.120;2022-10-16T06:20:33;13.41;92.53
13713;DHT22;6928;50.546;7.120;2022-10-16T06:23:00;13.25;92.62
13713;DHT22;6928;50.546;7.120;2022-10-16T06:25:27;13.35;92.42
13713;DHT22;6928;50.546;7.120;2022-10-16T06:27:55;13.31;92.83
13713;DHT22;6928;50.546;7.120;2022-10-16T06:30:22;13.41;92.49
13713;DHT22;6928;50.546;7.120;2022-10-16T06:32:49;13.36;92.67
13713;DHT22;6928;50.546;7.120;2022-10-16T06:35:15;13.45;92.39
13713;DHT22;6928;50.546;7.120;2022-10-16T06:37:42;13.41;92.64
13713;DHT22;6928;50.546;7.120;2022-10-16T06:40:09;13.51;92.51
13713;DHT22;6928;50.546;7.120;2022-10-16T06:42:36;13.45;92.73
13713;DHT22;6928;50.546;7.120;2022-10-16T06:45:06;13.49;92.94
13713;DHT22;6928;50.546;7.120;2022-10-16T06:47:32;13.52;92.71
13713;DHT22;6928;50.546;7.120;2022-10-16T06:49:59;13.56;92.53
13713;DHT22;6928;50.546;7.120;2022-10-16T06:52:27;13.61;92.41
13713;DHT22;6928;50.546;7.120;2022-10-16T06:54:54;13.66;92.37
13713;DHT22;6928;50.546;7.120;2022-10-16T06:57:21;13.72;92.19
13713;DHT22;6928;50.546;7.120;2022-10-16T06:59:48;13.82;91.88
13713;DHT22;6928;50.546;7.120;2022-10-16T07:02:16;13.79;92.05
13713;DHT22;6928;50.546;7.120;2022-10-16T07:04:42;13.73;92.57
13713;DHT22;6928;50.546;7.120;2022-10-16T07:07:09;13.82;92.44
13713;DHT22;6928;50.546;7.120;2022-10-16T07:09:36;13.86;92.12
13713;DHT22;6928;50.546;7.120;2022-10-16T07:12:03;13.83;92.27
13713;DHT22;6928;50.546;7.120;2022-10-16T07:14:30;13.89;92.18
13713;DHT22;6928;50.546;7.120;2022-10-16T07:16:57;13.87;92.22
13713;DHT22;6928;50.546;7.120;2022-10-16T07:19:25;13.89;92.31
13713;DHT22;6928;50.546;7.120;2022-10-16T07:21:52;13.85;92.28
13713;DHT22;6928;50.546;7.120;2022-10-16T07:24:19;13.99;92.23
13713;DHT22;6928;50.546;7.120;2022-10-16T07:26:46;14.07;92.01
13713;DHT22;6928;50.546;7.120;2022-10-16T07:29:15;14.13;91.69
13713;DHT22;6928;50.546;7.120;2022-10-16T07:31:43;14.16;91.62
13713;DHT22;6928;50.546;7.120;2022-10-16T07:34:11;14.20;91.82
13713;DHT22;6928;50.546;7.120;2022-10-16T07:36:40;14.31;91.23
13713;DHT22;6928;50.546;7.120;2022-10-16T07:39:07;14.38;91.43
13713;DHT22;6928;50.546;7.120;2022-10-16T07:41:34;14.47;91.45
13713;DHT22;6928;50.546;7.120;2022-10-16T07:44:03;14.50;91.15
13713;DHT22;6928;50.546;7.120;2022-10-16T07:46:30;14.55;90.99
13713;DHT22;6928;50.546;7.120;2022-10-16T07:48:59;14.62;90.28
13713;DHT22;6928;50.546;7.120;2022-10-16T07:51:26;14.74;90.16
13713;DHT22;6928;50.546;7.120;2022-10-16T07:53:54;14.78;90.00
13713;DHT22;6928;50.546;7.120;2022-10-16T07:56:22;14.83;89.77
13713;DHT22;6928;50.546;7.120;2022-10-16T07:58:50;14.95;89.08
13713;DHT22;6928;50.546;7.120;2022-10-16T08:01:17;15.03;88.90
13713;DHT22;6928;50.546;7.120;2022-10-16T08:03:47;15.04;88.71
13713;DHT22;6928;50.546;7.120;2022-10-16T08:06:14;15.17;88.56
13713;DHT22;6928;50.546;7.120;2022-10-16T08:08:41;15.17;89.12
13713;DHT22;6928;50.546;7.120;2022-10-16T08:11:09;15.17;88.93
13713;DHT22;6928;50.546;7.120;2022-10-16T08:13:36;15.32;88.43
13713;DHT22;6928;50.546;7.120;2022-10-16T08:16:04;15.39;87.60
13713;DHT22;6928;50.546;7.120;2022-10-16T08:18:34;15.40;88.05
13713;DHT22;6928;50.546;7.120;2022-10-16T08:21:01;15.51;87.24
13713;DHT22;6928;50.546;7.120;2022-10-16T08:23:28;15.55;86.93
13713;DHT22;6928;50.546;7.120;2022-10-16T08:26:01;15.58;86.72
13713;DHT22;6928;50.546;7.120;2022-10-16T08:28:29;15.64;86.05
13713;DHT22;6928;50.546;7.120;2022-10-16T08:30:56;15.61;86.41
13713;DHT22;6928;50.546;7.120;2022-10-16T08:33:23;15.58;85.95
13713;DHT22;6928;50.546;7.120;2022-10-16T08:35:53;15.75;83.47
13713;DHT22;6928;50.546;7.120;2022-10-16T08:38:20;15.95;83.00
13713;DHT22;6928;50.546;7.120;2022-10-16T08:40:47;15.93;82.23
13713;DHT22;6928;50.546;7.120;2022-10-16T08:43:40;15.99;82.47
13713;DHT22;6928;50.546;7.120;2022-10-16T08:46:27;15.98;83.52
13713;DHT22;6928;50.546;7.120;2022-10-16T08:48:57;15.93;84.84
13713;DHT22;6928;50.546;7.120;2022-10-16T08:51:27;15.99;83.44
13713;DHT22;6928;50.546;7.120;2022-10-16T08:53:57;16.06;83.07
13713;DHT22;6928;50.546;7.120;2022-10-16T08:56:25;16.13;82.87
13713;DHT22;6928;50.546;7.120;2022-10-16T08:58:54;16.11;83.49
13713;DHT22;6928;50.546;7.120;2022-10-16T09:01:22;16.08;83.56
13713;DHT22;6928;50.546;7.120;2022-10-16T09:04:13;16.23;81.48
13713;DHT22;6928;50.546;7.120;2022-10-16T09:06:46;16.36;82.61
13713;DHT22;6928;50.546;7.120;2022-10-16T09:09:49;16.42;81.77
13713;DHT22;6928;50.546;7.120;2022-10-16T09:12:24;16.51;80.68
13713;DHT22;6928;50.546;7.120;2022-10-16T09:15:05;16.68;79.98
13713;DHT22;6928;50.546;7.120;2022-10-16T09:17:42;16.67;79.73
13713;DHT22;6928;50.546;7.120;2022-10-16T09:20:26;16.77;80.25
13713;DHT22;6928;50.546;7.120;2022-10-16T09:23:10;16.92;79.43
13713;DHT22;6928;50.546;7.120;2022-10-16T09:25:40;17.07;79.15
13713;DHT22;6928;50.546;7.120;2022-10-16T09:28:07;17.09;79.35
13713;DHT22;6928;50.546;7.120;2022-10-16T09:30:37;17.42;78.51
13713;DHT22;6928;50.546;7.120;2022-10-16T09:33:04;17.87;76.50
13713;DHT22;6928;50.546;7.120;2022-10-16T09:35:36;17.96;76.32
13713;DHT22;6928;50.546;7.120;2022-10-16T09:38:03;18.12;75.58
13713;DHT22;6928;50.546;7.120;2022-10-16T09:40:33;18.05;75.95
13713;DHT22;6928;50.546;7.120;2022-10-16T09:43:12;18.35;74.09
13713;DHT22;6928;50.546;7.120;2022-10-16T09:45:42;18.21;74.17
13713;DHT22;6928;50.546;7.120;2022-10-16T09:48:11;18.33;74.29
13713;DHT22;6928;50.546;7.120;2022-10-16T09:50:39;18.76;73.75
13713;DHT22;6928;50.546;7.120;2022-10-16T09:53:12;18.36;72.97
13713;DHT22;6928;50.546;7.120;2022-10-16T09:55:48;18.65;73.19
13713;DHT22;6928;50.546;7.120;2022-10-16T09:58:15;18.66;71.58
13713;DHT22;6928;50.546;7.120;2022-10-16T10:00:49;18.56;72.13
13713;DHT22;6928;50.546;7.120;2022-10-16T10:03:34;18.76;71.41
13713;DHT22;6928;50.546;7.120;2022-10-16T10:06:07;18.75;71.62
13713;DHT22;6928;50.546;7.120;2022-10-16T10:08:41;19.20;71.18
13713;DHT22;6928;50.546;7.120;2022-10-16T10:11:08;19.17;70.53
13713;DHT22;6928;50.546;7.120;2022-10-16T10:13:35;18.97;70.78
13713;DHT22;6928;50.546;7.120;2022-10-16T10:16:03;18.84;71.35
13713;DHT22;6928;50.546;7.120;2022-10-16T10:18:30;19.37;69.91
13713;DHT22;6928;50.546;7.120;2022-10-16T10:20:58;19.03;71.10
13713;DHT22;6928;50.546;7.120;2022-10-16T10:23:28;19.63;68.87
13713;DHT22;6928;50.546;7.120;2022-10-16T10:26:01;19.49;69.11
13713;DHT22;6928;50.546;7.120;2022-10-16T10:28:45;19.45;68.41
13713;DHT22;6928;50.546;7.120;2022-10-16T10:31:21;19.21;69.27
13713;DHT22;6928;50.546;7.120;2022-10-16T10:33:57;19.59;68.64
13713;DHT22;6928;50.546;7.120;2022-10-16T10:36:34;19.78;68.97
13713;DHT22;6928;50.546;7.120;2022-10-16T10:39:06;19.79;68.66
13713;DHT22;6928;50.546;7.120;2022-10-16T10:42:12;19.93;67.25
13713;DHT22;6928;50.546;7.120;2022-10-16T10:44:57;19.68;67.89
13713;DHT22;6928;50.546;7.120;2022-10-16T10:47:42;20.07;68.26
13713;DHT22;6928;50.546;7.120;2022-10-16T10:50:17;20.07;67.53
13713;DHT22;6928;50.546;7.120;2022-10-16T10:53:02;20.05;67.88
13713;DHT22;6928;50.546;7.120;2022-10-16T10:55:39;20.21;66.69
13713;DHT22;6928;50.546;7.120;2022-10-16T10:58:36;19.85;65.89
13713;DHT22;6928;50.546;7.120;2022-10-16T11:01:09;19.92;66.69
13713;DHT22;6928;50.546;7.120;2022-10-16T11:04:08;20.20;66.12
13713;DHT22;6928;50.546;7.120;2022-10-16T11:06:42;20.31;66.51
13713;DHT22;6928;50.546;7.120;2022-10-16T11:09:15;20.31;65.55
13713;DHT22;6928;50.546;7.120;2022-10-16T11:11:46;20.38;65.10
13713;DHT22;6928;50.546;7.120;2022-10-16T11:14:19;20.24;65.46
13713;DHT22;6928;50.546;7.120;2022-10-16T11:16:52;20.55;64.46
13713;DHT22;6928;50.546;7.120;2022-10-16T11:19:32;20.06;64.61
13713;DHT22;6928;50.546;7.120;2022-10-16T11:22:04;19.99;65.33
13713;DHT22;6928;50.546;7.120;2022-10-16T11:24:40;20.00;66.34
13713;DHT22;6928;50.546;7.120;2022-10-16T11:27:14;20.55;65.01
13713;DHT22;6928;50.546;7.120;2022-10-16T11:29:49;20.44;66.00
13713;DHT22;6928;50.546;7.120;2022-10-16T11:32:23;20.74;65.12
13713;DHT22;6928;50.546;7.120;2022-10-16T11:34:58;20.27;65.10
13713;DHT22;6928;50.546;7.120;2022-10-16T11:37:31;20.82;64.02
13713;DHT22;6928;50.546;7.120;2022-10-16T11:40:09;20.95;63.45
13713;DHT22;6928;50.546;7.120;2022-10-16T11:42:46;21.06;63.79
13713;DHT22;6928;50.546;7.120;2022-10-16T11:45:26;21.47;63.07
13713;DHT22;6928;50.546;7.120;2022-10-16T11:48:02;21.17;63.24
13713;DHT22;6928;50.546;7.120;2022-10-16T11:50:36;21.65;61.28
13713;DHT22;6928;50.546;7.120;2022-10-16T11:53:16;21.44;62.20
13713;DHT22;6928;50.546;7.120;2022-10-16T11:55:45;21.49;62.24
13713;DHT22;6928;50.546;7.120;2022-10-16T11:58:22;21.50;62.16
13713;DHT22;6928;50.546;7.120;2022-10-16T12:01:00;21.29;61.45
13713;DHT22;6928;50.546;7.120;2022-10-16T12:03:36;21.07;62.39
13713;DHT22;6928;50.546;7.120;2022-10-16T12:06:19;21.63;61.61
13713;DHT22;6928;50.546;7.120;2022-10-16T12:08:50;21.02;62.40
13713;DHT22;6928;50.546;7.120;2022-10-16T12:11:30;20.59;63.94
13713;DHT22;6928;50.546;7.120;2022-10-16T12:14:06;20.84;63.84
13713;DHT22;6928;50.546;7.120;2022-10-16T12:16:34;20.75;64.09
13713;DHT22;6928;50.546;7.120;2022-10-16T12:19:12;21.05;63.28
13713;DHT22;6928;50.546;7.120;2022-10-16T12:21:41;21.03;63.34
13713;DHT22;6928;50.546;7.120;2022-10-16T12:24:22;21.24;62.94
13713;DHT22;6928;50.546;7.120;2022-10-16T12:26:52;21.00;63.46
13713;DHT22;6928;50.546;7.120;2022-10-16T12:29:30;21.02;63.84
13713;DHT22;6928;50.546;7.120;2022-10-16T12:31:58;20.74;64.73
13713;DHT22;6928;50.546;7.120;2022-10-16T12:34:29;20.75;64.46
13713;DHT22;6928;50.546;7.120;2022-10-16T12:37:10;20.89;64.65
13713;DHT22;6928;50.546;7.120;2022-10-16T12:39:38;21.50;62.71
13713;DHT22;6928;50.546;7.120;2022-10-16T12:42:22;20.99;63.63
13713;DHT22;6928;50.546;7.120;2022-10-16T12:44:49;20.94;64.10
13713;DHT22;6928;50.546;7.120;2022-10-16T12:47:36;21.55;62.85
13713;DHT22;6928;50.546;7.120;2022-10-16T12:50:21;20.94;64.03
13713;DHT22;6928;50.546;7.120;2022-10-16T12:52:50;21.02;63.57
13713;DHT22;6928;50.546;7.120;2022-10-16T12:55:20;20.88;64.29
13713;DHT22;6928;50.546;7.120;2022-10-16T12:58:14;21.34;63.08
13713;DHT22;6928;50.546;7.120;2022-10-16T13:00:45;21.07;64.05
13713;DHT22;6928;50.546;7.120;2022-10-16T13:03:56;20.88;64.18
13713;DHT22;6928;50.546;7.120;2022-10-16T13:06:35;21.06;63.90
13713;DHT22;6928;50.546;7.120;2022-10-16T13:09:40;20.78;64.33
13713;DHT22;6928;50.546;7.120;2022-10-16T13:12:39;20.89;64.24
13713;DHT22;6928;50.546;7.120;2022-10-16T13:15:24;20.82;64.51
13713;DHT22;6928;50.546;7.120;2022-10-16T13:18:02;20.82;64.89
13713;DHT22;6928;50.546;7.120;2022-10-16T13:20:35;20.76;64.76
13713;DHT22;6928;50.546;7.120;2022-10-16T13:23:13;20.78;64.81
13713;DHT22;6928;50.546;7.120;2022-10-16T13:25:58;20.89;64.38
13713;DHT22;6928;50.546;7.120;2022-10-16T13:28:29;20.84;64.56
13713;DHT22;6928;50.546;7.120;2022-10-16T13:30:58;20.82;64.77
13713;DHT22;6928;50.546;7.120;2022-10-16T13:33:32;20.85;66.09
13713;DHT22;6928;50.546;7.120;2022-10-16T13:36:00;20.88;65.69
13713;DHT22;6928;50.546;7.120;2022-10-16T13:38:29;20.69;66.32
13713;DHT22;6928;50.546;7.120;2022-10-16T13:41:01;20.68;66.44
13713;DHT22;6928;50.546;7.120;2022-10-16T13:43:32;20.67;65.65
13713;DHT22;6928;50.546;7.120;2022-10-16T13:46:02;20.67;65.67
13713;DHT22;6928;50.546;7.120;2022-10-16T13:48:29;20.76;66.38
13713;DHT22;6928;50.546;7.120;2022-10-16T13:51:02;20.68;66.17
13713;DHT22;6928;50.546;7.120;2022-10-16T13:53:31;20.62;66.88
13713;DHT22;6928;50.546;7.120;2022-10-16T13:56:03;20.54;66.41
13713;DHT22;6928;50.546;7.120;2022-10-16T13:58:31;20.52;66.36
13713;DHT22;6928;50.546;7.120;2022-10-16T14:01:00;20.52;66.70
13713;DHT22;6928;50.546;7.120;2022-10-16T14:03:28;20.44;67.64
13713;DHT22;6928;50.546;7.120;2022-10-16T14:05:59;20.41;68.39
13713;DHT22;6928;50.546;7.120;2022-10-16T14:08:28;20.38;68.56
13713;DHT22;6928;50.546;7.120;2022-10-16T14:10:57;20.43;68.54
13713;DHT22;6928;50.546;7.120;2022-10-16T14:13:31;20.44;67.80
13713;DHT22;6928;50.546;7.120;2022-10-16T14:16:04;20.38;68.39
13713;DHT22;6928;50.546;7.120;2022-10-16T14:18:32;20.27;68.29
13713;DHT22;6928;50.546;7.120;2022-10-16T14:21:04;20.24;67.51
13713;DHT22;6928;50.546;7.120;2022-10-16T14:23:35;20.28;67.80
13713;DHT22;6928;50.546;7.120;2022-10-16T14:26:12;20.24;68.22
13713;DHT22;6928;50.546;7.120;2022-10-16T14:28:46;20.21;67.47
13713;DHT22;6928;50.546;7.120;2022-10-16T14:31:27;20.20;67.94
13713;DHT22;6928;50.546;7.120;2022-10-16T14:33:55;20.21;67.75
13713;DHT22;6928;50.546;7.120;2022-10-16T14:36:22;20.30;68.19
13713;DHT22;6928;50.546;7.120;2022-10-16T14:38:59;20.21;69.00
13713;DHT22;6928;50.546;7.120;2022-10-16T14:41:28;20.07;68.68
13713;DHT22;6928;50.546;7.120;2022-10-16T14:44:01;20.09;69.21
13713;DHT22;6928;50.546;7.120;2022-10-16T14:46:32;20.13;69.41
13713;DHT22;6928;50.546;7.120;2022-10-16T14:49:05;20.16;69.06
13713;DHT22;6928;50.546;7.120;2022-10-16T14:51:40;20.12;69.86
13713;DHT22;6928;50.546;7.120;2022-10-16T14:54:10;20.09;69.78
13713;DHT22;6928;50.546;7.120;2022-10-16T14:56:46;20.05;70.01
13713;DHT22;6928;50.546;7.120;2022-10-16T14:59:19;20.10;69.89
13713;DHT22;6928;50.546;7.120;2022-10-16T15:01:46;20.09;70.57
13713;DHT22;6928;50.546;7.120;2022-10-16T15:04:13;20.03;70.62
13713;DHT22;6928;50.546;7.120;2022-10-16T15:06:41;20.03;70.66
13713;DHT22;6928;50.546;7.120;2022-10-16T15:09:08;19.97;71.34
13713;DHT22;6928;50.546;7.120;2022-10-16T15:11:35;20.00;71.42
13713;DHT22;6928;50.546;7.120;2022-10-16T15:14:02;19.93;71.78
13713;DHT22;6928;50.546;7.120;2022-10-16T15:16:32;19.92;72.57
13713;DHT22;6928;50.546;7.120;2022-10-16T15:18:58;19.96;72.76
13713;DHT22;6928;50.546;7.120;2022-10-16T15:21:28;19.89;73.14
13713;DHT22;6928;50.546;7.120;2022-10-16T15:23:56;19.80;73.69
13713;DHT22;6928;50.546;7.120;2022-10-16T15:26:24;19.73;74.21
13713;DHT22;6928;50.546;7.120;2022-10-16T15:28:51;19.73;74.58
13713;DHT22;6928;50.546;7.120;2022-10-16T15:31:18;19.69;74.82
13713;DHT22;6928;50.546;7.120;2022-10-16T15:33:49;19.65;74.18
13713;DHT22;6928;50.546;7.120;2022-10-16T15:36:23;19.61;74.53
13713;DHT22;6928;50.546;7.120;2022-10-16T15:38:50;19.58;74.73
13713;DHT22;6928;50.546;7.120;2022-10-16T15:41:18;19.57;74.96
13713;DHT22;6928;50.546;7.120;2022-10-16T15:43:48;19.55;75.14
13713;DHT22;6928;50.546;7.120;2022-10-16T15:46:18;19.55;75.53
13713;DHT22;6928;50.546;7.120;2022-10-16T15:48:47;19.45;76.31
13713;DHT22;6928;50.546;7.120;2022-10-16T15:51:14;19.41;76.30
13713;DHT22;6928;50.546;7.120;2022-10-16T15:53:41;19.31;76.48
13713;DHT22;6928;50.546;7.120;2022-10-16T15:56:10;19.32;76.71
13713;DHT22;6928;50.546;7.120;2022-10-16T15:58:37;19.23;77.51
13713;DHT22;6928;50.546;7.120;2022-10-16T16:01:05;19.23;77.46
13713;DHT22;6928;50.546;7.120;2022-10-16T16:03:33;19.18;77.42
13713;DHT22;6928;50.546;7.120;2022-10-16T16:06:06;19.10;77.70
13713;DHT22;6928;50.546;7.120;2022-10-16T16:08:34;19.06;77.89